createdAt,value
2023-04-17T00:00:50.440Z,0.00
2023-04-17T00:03:18.710Z,0.00
2023-04-17T00:05:46.923Z,0.00
2023-04-17T00:08:16.556Z,0.00
2023-04-17T00:11:00.192Z,0.00
2023-04-17T00:13:35.104Z,0.00
2023-04-17T00:16:03.427Z,0.00
2023-04-17T00:18:31.577Z,0.00
2023-04-17T00:20:59.639Z,0.00
2023-04-17T00:23:29.174Z,0.10
2023-04-17T00:25:57.354Z,0.00
2023-04-17T00:28:25.652Z,0.20
2023-04-17T00:30:53.859Z,0.00
2023-04-17T00:33:21.968Z,0.00
2023-04-17T00:35:50.178Z,0.00
2023-04-17T00:38:18.371Z,0.00
2023-04-17T00:40:48.946Z,0.00
2023-04-17T00:43:17.224Z,0.00
2023-04-17T00:45:47.383Z,0.30
2023-04-17T00:48:17.903Z,0.10
2023-04-17T00:50:46.693Z,0.00
2023-04-17T00:53:15.418Z,0.40
2023-04-17T00:55:45.695Z,0.00
2023-04-17T00:58:15.458Z,0.00
2023-04-17T01:00:43.663Z,0.00
2023-04-17T01:03:12.477Z,0.20
2023-04-17T01:05:41.543Z,0.17
2023-04-17T01:08:09.680Z,0.10
2023-04-17T01:10:37.838Z,0.27
2023-04-17T01:13:07.292Z,0.03
2023-04-17T01:15:37.346Z,0.00
2023-04-17T01:18:06.266Z,0.00
2023-04-17T01:20:34.993Z,0.10
2023-04-17T01:23:03.081Z,0.00
2023-04-17T01:25:32.742Z,0.00
2023-04-17T01:28:00.858Z,0.00
2023-04-17T01:30:28.902Z,0.00
2023-04-17T01:32:57.103Z,0.00
2023-04-17T01:35:25.279Z,0.00
2023-04-17T01:37:53.478Z,0.03
2023-04-17T01:40:21.777Z,0.00
2023-04-17T01:42:51.298Z,0.00
2023-04-17T01:45:19.530Z,0.00
2023-04-17T01:47:47.839Z,0.00
2023-04-17T01:50:15.950Z,0.00
2023-04-17T01:52:44.096Z,0.00
2023-04-17T01:55:12.446Z,0.00
2023-04-17T01:57:40.525Z,0.00
2023-04-17T02:00:11.271Z,0.00
2023-04-17T02:02:39.516Z,0.07
2023-04-17T02:05:08.595Z,0.00
2023-04-17T02:07:36.759Z,0.00
2023-04-17T02:10:05.149Z,0.27
2023-04-17T02:12:33.501Z,0.00
2023-04-17T02:15:01.601Z,0.00
2023-04-17T02:17:31.215Z,0.00
2023-04-17T02:19:59.409Z,0.07
2023-04-17T02:22:27.512Z,0.00
2023-04-17T02:24:55.708Z,0.20
2023-04-17T02:27:23.913Z,0.00
2023-04-17T02:29:51.986Z,0.30
2023-04-17T02:32:20.165Z,0.00
2023-04-17T02:34:49.733Z,0.00
2023-04-17T02:37:17.900Z,0.00
2023-04-17T02:39:45.989Z,0.00
2023-04-17T02:42:14.171Z,0.10
2023-04-17T02:44:42.321Z,0.00
2023-04-17T02:47:10.520Z,0.00
2023-04-17T02:49:38.647Z,0.00
2023-04-17T02:52:08.228Z,0.00
2023-04-17T02:54:36.393Z,0.00
2023-04-17T02:57:04.749Z,0.00
2023-04-17T02:59:32.843Z,0.00
2023-04-17T03:02:01.195Z,0.00
2023-04-17T03:04:29.359Z,0.00
2023-04-17T03:06:57.522Z,0.00
2023-04-17T03:09:27.482Z,0.00
2023-04-17T03:11:55.651Z,0.00
2023-04-17T03:14:23.832Z,0.00
2023-04-17T03:16:52.068Z,0.10
2023-04-17T03:19:20.290Z,0.00
2023-04-17T03:21:48.382Z,0.00
2023-04-17T03:24:16.505Z,0.00
2023-04-17T03:26:46.160Z,0.20
2023-04-17T03:29:14.384Z,0.00
2023-04-17T03:31:42.622Z,0.00
2023-04-17T03:34:10.797Z,0.00
2023-04-17T03:36:39.024Z,0.00
2023-04-17T03:39:07.156Z,0.00
2023-04-17T03:41:35.258Z,0.00
2023-04-17T03:44:04.753Z,0.00
2023-04-17T03:46:32.896Z,0.00
2023-04-17T03:49:01.118Z,0.00
2023-04-17T03:51:29.297Z,0.00
2023-04-17T03:53:57.368Z,0.10
2023-04-17T03:56:25.787Z,0.10
2023-04-17T03:58:53.948Z,0.00
2023-04-17T04:01:23.734Z,0.00
2023-04-17T04:03:52.298Z,0.00
2023-04-17T04:06:20.519Z,0.10
2023-04-17T04:08:48.642Z,0.77
2023-04-17T04:11:16.841Z,0.00
2023-04-17T04:13:44.918Z,0.00
2023-04-17T04:16:13.089Z,0.00
2023-04-17T04:18:43.441Z,0.00
2023-04-17T04:21:12.365Z,0.00
2023-04-17T04:23:41.472Z,0.30
2023-04-17T04:26:09.874Z,0.00
2023-04-17T04:28:38.315Z,0.27
2023-04-17T04:31:07.011Z,0.10
2023-04-17T04:33:35.377Z,0.00
2023-04-17T04:36:05.122Z,0.10
2023-04-17T04:38:33.425Z,0.00
2023-04-17T04:41:06.281Z,0.10
2023-04-17T04:43:35.678Z,0.00
2023-04-17T04:46:03.872Z,0.00
2023-04-17T04:48:31.990Z,0.00
2023-04-17T04:51:00.280Z,0.00
2023-04-17T04:53:30.002Z,0.00
2023-04-17T04:55:58.139Z,0.27
2023-04-17T04:58:26.450Z,0.00
2023-04-17T05:00:54.611Z,0.00
2023-04-17T05:03:23.825Z,0.00
2023-04-17T05:05:52.101Z,0.10
2023-04-17T05:08:20.488Z,0.00
2023-04-17T05:10:50.153Z,0.00
2023-04-17T05:13:18.282Z,0.00
2023-04-17T05:15:46.732Z,0.00
2023-04-17T05:18:15.833Z,0.00
2023-04-17T05:20:45.868Z,0.00
2023-04-17T05:23:14.155Z,0.07
2023-04-17T05:25:42.455Z,0.00
2023-04-17T05:28:12.657Z,0.30
2023-04-17T05:30:42.128Z,0.00
2023-04-17T05:33:10.324Z,0.00
2023-04-17T05:35:38.549Z,0.10
2023-04-17T05:38:08.114Z,0.00
2023-04-17T05:40:36.634Z,0.10
2023-04-17T05:43:09.521Z,0.00
2023-04-17T05:45:41.513Z,0.10
2023-04-17T05:48:09.742Z,0.00
2023-04-17T05:50:38.636Z,0.27
2023-04-17T05:53:06.967Z,0.10
2023-04-17T05:55:35.212Z,0.00
2023-04-17T05:58:07.993Z,0.00
2023-04-17T06:00:52.595Z,0.00
2023-04-17T06:03:21.349Z,0.00
2023-04-17T06:05:49.636Z,0.10
2023-04-17T06:08:17.854Z,0.00
2023-04-17T06:10:46.724Z,0.00
2023-04-17T06:13:14.847Z,0.00
2023-04-17T06:15:43.004Z,0.10
2023-04-17T06:18:12.652Z,0.00
2023-04-17T06:20:40.842Z,0.00
2023-04-17T06:23:09.016Z,0.00
2023-04-17T06:25:37.235Z,0.00
2023-04-17T06:28:05.784Z,0.00
2023-04-17T06:30:35.289Z,0.37
2023-04-17T06:33:03.506Z,0.00
2023-04-17T06:35:33.224Z,0.00
2023-04-17T06:38:01.443Z,0.00
2023-04-17T06:40:29.535Z,0.00
2023-04-17T06:42:57.665Z,0.07
2023-04-17T06:45:25.895Z,0.10
2023-04-17T06:47:53.964Z,0.10
2023-04-17T06:50:22.263Z,0.00
2023-04-17T06:52:51.802Z,0.03
2023-04-17T06:55:20.192Z,0.03
2023-04-17T06:57:48.305Z,0.03
2023-04-17T07:00:17.248Z,0.10
2023-04-17T07:02:45.718Z,0.00
2023-04-17T07:05:14.524Z,0.10
2023-04-17T07:07:42.607Z,0.00
2023-04-17T07:10:12.671Z,0.40
2023-04-17T07:12:40.889Z,0.10
2023-04-17T07:15:10.410Z,0.00
2023-04-17T07:17:38.765Z,0.07
2023-04-17T07:20:08.473Z,0.00
2023-04-17T07:22:37.003Z,0.00
2023-04-17T07:25:06.360Z,0.00
2023-04-17T07:27:38.466Z,0.00
2023-04-17T07:30:08.904Z,0.10
2023-04-17T07:32:37.650Z,0.07
2023-04-17T07:35:06.614Z,0.10
2023-04-17T07:37:37.187Z,0.03
2023-04-17T07:40:08.192Z,0.00
2023-04-17T07:42:38.063Z,0.00
2023-04-17T07:45:07.284Z,0.10
2023-04-17T07:47:35.619Z,0.20
2023-04-17T07:50:03.844Z,0.00
2023-04-17T07:52:32.193Z,0.00
2023-04-17T07:55:00.458Z,0.00
2023-04-17T07:57:28.647Z,0.00
2023-04-17T07:59:58.236Z,0.10
2023-04-17T08:02:26.727Z,0.10
2023-04-17T08:04:55.703Z,0.10
2023-04-17T08:07:24.127Z,0.00
2023-04-17T08:09:52.429Z,0.07
2023-04-17T08:12:20.782Z,0.13
2023-04-17T08:14:49.086Z,0.63
2023-04-17T08:17:23.005Z,0.00
2023-04-17T08:19:53.722Z,0.17
2023-04-17T08:22:24.268Z,0.30
2023-04-17T08:24:54.979Z,0.00
2023-04-17T08:27:23.261Z,0.00
2023-04-17T08:29:51.806Z,0.10
2023-04-17T08:32:21.876Z,0.00
2023-04-17T08:34:50.151Z,0.00
2023-04-17T08:37:18.348Z,0.03
2023-04-17T08:39:46.646Z,0.00
2023-04-17T08:42:18.946Z,0.10
2023-04-17T08:44:47.476Z,0.40
2023-04-17T08:47:18.697Z,0.17
2023-04-17T08:49:50.646Z,0.00
2023-04-17T08:52:18.872Z,0.20
2023-04-17T08:54:49.873Z,0.30
2023-04-17T08:57:19.456Z,0.10
2023-04-17T08:59:47.673Z,0.13
2023-04-17T09:02:16.086Z,0.10
2023-04-17T09:04:47.305Z,0.00
2023-04-17T09:07:16.976Z,0.00
2023-04-17T09:09:52.236Z,0.00
2023-04-17T09:12:21.116Z,0.10
2023-04-17T09:14:49.436Z,0.20
2023-04-17T09:17:19.126Z,0.47
2023-04-17T09:20:09.163Z,0.10
2023-04-17T09:22:40.383Z,0.17
2023-04-17T09:25:18.290Z,0.10
2023-04-17T09:27:46.930Z,0.10
2023-04-17T09:30:15.832Z,0.20
2023-04-17T09:32:44.083Z,0.20
2023-04-17T09:35:12.448Z,0.10
2023-04-17T09:37:52.226Z,0.10
2023-04-17T09:40:21.659Z,0.33
2023-04-17T09:42:57.532Z,0.35
2023-04-17T09:45:27.048Z,0.28
2023-04-17T09:47:56.105Z,0.20
2023-04-17T09:50:26.052Z,0.20
2023-04-17T09:52:56.788Z,0.10
2023-04-17T09:55:26.844Z,0.27
2023-04-17T09:57:56.627Z,0.17
2023-04-17T10:00:27.262Z,0.20
2023-04-17T10:02:57.505Z,0.20
2023-04-17T10:05:27.207Z,0.40
2023-04-17T10:07:57.420Z,0.20
2023-04-17T10:10:27.058Z,0.20
2023-04-17T10:12:59.456Z,0.20
2023-04-17T10:15:28.446Z,0.20
2023-04-17T10:17:57.849Z,0.28
2023-04-17T10:20:44.972Z,0.55
2023-04-17T10:23:32.504Z,0.30
2023-04-17T10:26:46.191Z,0.17
2023-04-17T10:29:14.420Z,0.30
2023-04-17T10:32:17.683Z,0.55
2023-04-17T10:34:46.452Z,0.10
2023-04-17T10:37:16.324Z,0.20
2023-04-17T10:39:54.454Z,0.17
2023-04-17T10:42:24.090Z,0.32
2023-04-17T10:44:53.355Z,0.22
2023-04-17T10:47:22.870Z,0.20
2023-04-17T10:49:52.610Z,0.30
2023-04-17T10:52:40.388Z,0.37
2023-04-17T10:55:12.621Z,0.40
2023-04-17T10:57:57.498Z,0.70
2023-04-17T11:00:37.511Z,0.40
2023-04-17T11:03:07.816Z,0.30
2023-04-17T11:05:36.791Z,0.10
2023-04-17T11:08:04.914Z,0.33
2023-04-17T11:10:37.381Z,0.33
2023-04-17T11:13:05.837Z,0.30
2023-04-17T11:15:35.731Z,0.40
2023-04-17T11:18:05.116Z,0.40
2023-04-17T11:20:37.234Z,0.50
2023-04-17T11:23:06.544Z,0.40
2023-04-17T11:25:37.359Z,0.25
2023-04-17T11:28:07.958Z,0.80
2023-04-17T11:30:37.535Z,0.82
2023-04-17T11:33:07.890Z,0.43
2023-04-17T11:35:37.745Z,0.52
2023-04-17T11:38:07.917Z,0.40
2023-04-17T11:40:37.499Z,0.35
2023-04-17T11:43:09.098Z,0.20
2023-04-17T11:45:38.270Z,0.47
2023-04-17T11:48:06.633Z,0.40
2023-04-17T11:50:34.821Z,0.77
2023-04-17T11:53:04.316Z,0.47
2023-04-17T11:55:33.479Z,0.70
2023-04-17T11:58:05.427Z,0.70
2023-04-17T12:00:34.544Z,0.40
2023-04-17T12:03:04.713Z,0.70
2023-04-17T12:05:32.982Z,0.30
2023-04-17T12:08:03.182Z,0.70
2023-04-17T12:10:42.384Z,0.35
2023-04-17T12:13:13.168Z,0.80
2023-04-17T12:15:41.341Z,0.40
2023-04-17T12:18:10.185Z,0.45
2023-04-17T12:20:38.570Z,0.52
2023-04-17T12:23:07.843Z,0.32
2023-04-17T12:25:36.230Z,0.22
2023-04-17T12:28:05.128Z,0.50
2023-04-17T12:30:36.273Z,0.50
2023-04-17T12:33:04.792Z,0.40
2023-04-17T12:35:33.724Z,0.47
2023-04-17T12:38:01.969Z,0.70
2023-04-17T12:40:30.155Z,0.35
2023-04-17T12:42:58.306Z,0.28
2023-04-17T12:45:26.542Z,0.50
2023-04-17T12:47:56.254Z,0.55
2023-04-17T12:50:24.598Z,0.60
2023-04-17T12:52:52.697Z,0.63
2023-04-17T12:55:20.945Z,0.40
2023-04-17T12:57:49.004Z,1.00
2023-04-17T13:00:18.060Z,1.00
2023-04-17T13:02:46.295Z,0.80
2023-04-17T13:05:16.242Z,0.55
2023-04-17T13:07:44.385Z,0.70
2023-04-17T13:10:12.633Z,0.68
2023-04-17T13:12:42.296Z,0.73
2023-04-17T13:15:13.049Z,1.02
2023-04-17T13:17:41.432Z,0.35
2023-04-17T13:20:10.771Z,0.30
2023-04-17T13:22:40.548Z,0.30
2023-04-17T13:25:09.708Z,0.60
2023-04-17T13:27:38.276Z,0.40
2023-04-17T13:30:07.585Z,1.30
2023-04-17T13:32:35.920Z,1.10
2023-04-17T13:35:05.294Z,0.50
2023-04-17T13:37:33.533Z,0.68
2023-04-17T13:40:05.354Z,0.60
2023-04-17T13:42:33.687Z,0.80
2023-04-17T13:45:01.872Z,0.47
2023-04-17T13:47:30.095Z,0.93
2023-04-17T13:49:58.332Z,0.30
2023-04-17T13:52:26.994Z,0.30
2023-04-17T13:54:55.060Z,0.40
2023-04-17T13:57:24.556Z,0.75
2023-04-17T13:59:52.701Z,0.38
2023-04-17T14:02:21.230Z,0.43
2023-04-17T14:04:49.850Z,0.38
2023-04-17T14:07:18.453Z,0.28
2023-04-17T14:09:46.688Z,0.40
2023-04-17T14:12:19.858Z,0.17
2023-04-17T14:14:49.430Z,0.60
2023-04-17T14:17:18.186Z,0.52
2023-04-17T14:19:46.389Z,0.75
2023-04-17T14:22:14.504Z,0.68
2023-04-17T14:24:42.687Z,0.63
2023-04-17T14:27:10.900Z,0.50
2023-04-17T14:29:38.988Z,0.52
2023-04-17T14:32:10.885Z,0.50
2023-04-17T14:34:39.130Z,0.35
2023-04-17T14:37:07.331Z,0.50
2023-04-17T14:39:35.433Z,0.60
2023-04-17T14:42:03.640Z,0.45
2023-04-17T14:44:31.838Z,0.52
2023-04-17T14:47:00.094Z,0.77
2023-04-17T14:49:30.399Z,0.50
2023-04-17T14:51:58.751Z,0.25
2023-04-17T14:54:26.982Z,0.50
2023-04-17T14:56:55.169Z,0.50
2023-04-17T14:59:23.531Z,0.50
2023-04-17T15:01:51.918Z,0.68
2023-04-17T15:04:20.261Z,0.55
2023-04-17T15:06:50.256Z,0.20
2023-04-17T15:09:18.574Z,1.00
2023-04-17T15:11:47.807Z,0.50
2023-04-17T15:14:15.937Z,0.30
2023-04-17T15:16:44.149Z,0.50
2023-04-17T15:19:12.592Z,0.70
2023-04-17T15:21:41.119Z,0.80
2023-04-17T15:24:10.872Z,0.40
2023-04-17T15:26:39.138Z,0.90
2023-04-17T15:29:07.419Z,0.50
2023-04-17T15:31:36.041Z,0.75
2023-04-17T15:34:04.292Z,0.70
2023-04-17T15:36:32.776Z,1.15
2023-04-17T15:39:00.991Z,0.70
2023-04-17T15:41:30.706Z,1.65
2023-04-17T15:43:58.882Z,1.05
2023-04-17T15:46:27.054Z,0.60
2023-04-17T15:49:08.335Z,0.60
2023-04-17T15:51:38.555Z,0.90
2023-04-17T15:54:08.460Z,0.77
2023-04-17T15:56:38.186Z,0.60
2023-04-17T15:59:06.364Z,1.17
2023-04-17T16:01:34.638Z,0.60
2023-04-17T16:04:02.992Z,0.90
2023-04-17T16:06:31.442Z,0.50
2023-04-17T16:08:59.616Z,0.80
2023-04-17T16:11:28.228Z,0.60
2023-04-17T16:13:57.935Z,0.43
2023-04-17T16:16:27.287Z,0.55
2023-04-17T16:18:55.523Z,0.57
2023-04-17T16:21:23.735Z,0.63
2023-04-17T16:23:51.873Z,0.40
2023-04-17T16:26:20.148Z,0.52
2023-04-17T16:28:48.285Z,0.60
2023-04-17T16:31:17.917Z,0.65
2023-04-17T16:33:46.137Z,0.50
2023-04-17T16:36:14.461Z,0.60
2023-04-17T16:38:42.689Z,0.60
2023-04-17T16:41:10.877Z,0.40
2023-04-17T16:43:39.094Z,0.50
2023-04-17T16:46:18.409Z,0.40
2023-04-17T16:48:51.137Z,0.38
2023-04-17T16:51:20.529Z,0.55
2023-04-17T16:53:48.863Z,0.40
2023-04-17T16:56:17.345Z,0.30
2023-04-17T16:58:45.518Z,0.47
2023-04-17T17:01:14.065Z,0.40
2023-04-17T17:03:43.425Z,0.30
2023-04-17T17:06:13.127Z,0.35
2023-04-17T17:08:43.359Z,0.47
2023-04-17T17:11:11.577Z,0.75
2023-04-17T17:13:39.816Z,0.75
2023-04-17T17:16:08.086Z,0.63
2023-04-17T17:18:36.352Z,0.20
2023-04-17T17:21:05.025Z,0.30
2023-04-17T17:23:34.688Z,0.87
2023-04-17T17:26:03.021Z,0.20
2023-04-17T17:28:31.170Z,0.50
2023-04-17T17:31:02.781Z,0.20
2023-04-17T17:33:32.119Z,0.40
2023-04-17T17:36:01.115Z,0.67
2023-04-17T17:38:31.022Z,0.40
2023-04-17T17:41:01.118Z,0.30
2023-04-17T17:43:30.047Z,0.90
2023-04-17T17:45:58.343Z,0.67
2023-04-17T17:48:27.051Z,0.30
2023-04-17T17:50:57.206Z,0.30
2023-04-17T17:53:26.609Z,0.23
2023-04-17T17:55:56.828Z,0.30
2023-04-17T17:58:27.497Z,0.10
2023-04-17T18:00:56.064Z,0.73
2023-04-17T18:03:24.543Z,0.23
2023-04-17T18:05:53.000Z,0.20
2023-04-17T18:08:21.202Z,0.20
2023-04-17T18:10:49.405Z,0.30
2023-04-17T18:13:22.959Z,0.73
2023-04-17T18:15:54.723Z,0.70
2023-04-17T18:18:22.922Z,0.57
2023-04-17T18:20:51.622Z,0.50
2023-04-17T18:23:20.282Z,0.53
2023-04-17T18:25:58.138Z,0.70
2023-04-17T18:28:27.237Z,0.20
2023-04-17T18:30:58.812Z,0.40
2023-04-17T18:33:29.518Z,0.40
2023-04-17T18:35:57.624Z,0.20
2023-04-17T18:38:25.837Z,0.20
2023-04-17T18:40:55.728Z,0.30
2023-04-17T18:43:24.126Z,0.53
2023-04-17T18:45:52.681Z,0.30
2023-04-17T18:48:26.028Z,0.30
2023-04-17T18:50:54.225Z,0.23
2023-04-17T18:53:23.000Z,0.50
2023-04-17T18:55:52.738Z,0.33
2023-04-17T18:58:24.517Z,0.50
2023-04-17T19:00:52.790Z,0.30
2023-04-17T19:03:22.448Z,0.13
2023-04-17T19:05:50.920Z,0.97
2023-04-17T19:08:19.191Z,0.20
2023-04-17T19:10:47.472Z,0.40
2023-04-17T19:13:15.619Z,0.30
2023-04-17T19:15:43.827Z,0.27
2023-04-17T19:18:11.932Z,0.27
2023-04-17T19:20:42.633Z,0.70
2023-04-17T19:23:11.341Z,0.23
2023-04-17T19:25:41.740Z,0.43
2023-04-17T19:28:11.671Z,0.40
2023-04-17T19:30:40.188Z,0.30
2023-04-17T19:33:08.572Z,0.60
2023-04-17T19:35:36.899Z,0.40
2023-04-17T19:38:06.568Z,0.57
2023-04-17T19:40:34.868Z,0.50
2023-04-17T19:43:03.751Z,0.53
2023-04-17T19:45:33.485Z,0.37
2023-04-17T19:48:02.123Z,0.43
2023-04-17T19:53:07.518Z,0.40
2023-04-17T19:55:35.873Z,0.37
2023-04-17T19:58:04.445Z,0.30
2023-04-17T20:00:33.343Z,0.40
2023-04-17T20:03:01.908Z,0.47
2023-04-17T20:05:30.664Z,1.00
2023-04-17T20:07:59.017Z,0.20
2023-04-17T20:10:28.893Z,0.40
2023-04-17T20:12:57.305Z,0.77
2023-04-17T20:15:25.840Z,0.20
2023-04-17T20:17:55.721Z,0.30
2023-04-17T20:20:24.785Z,0.20
2023-04-17T20:22:53.094Z,0.30
2023-04-17T20:25:21.760Z,0.20
2023-04-17T20:27:51.970Z,0.33
2023-04-17T20:30:20.950Z,0.43
2023-04-17T20:32:49.722Z,0.67
2023-04-17T20:35:20.991Z,0.60
2023-04-17T20:37:49.998Z,0.63
2023-04-17T20:43:49.079Z,0.23
2023-04-17T20:46:37.939Z,0.33
2023-04-17T20:49:25.754Z,0.23
2023-04-17T20:52:08.185Z,0.13
2023-04-17T20:54:46.596Z,0.10
2023-04-17T20:57:19.705Z,0.30
2023-04-17T20:59:50.117Z,0.63
2023-04-17T21:02:19.088Z,0.20
2023-04-17T21:04:47.621Z,0.30
2023-04-17T21:07:16.128Z,0.13
2023-04-17T21:09:44.358Z,0.20
2023-04-17T21:12:12.665Z,0.10
2023-04-17T21:14:43.418Z,0.30
2023-04-17T21:17:13.229Z,0.37
2023-04-17T21:19:42.370Z,0.37
2023-04-17T21:22:12.158Z,0.13
2023-04-17T21:24:41.105Z,0.23
2023-04-17T21:27:10.553Z,0.33
2023-04-17T21:29:38.988Z,0.20
2023-04-17T21:32:07.691Z,0.20
2023-04-17T21:34:37.475Z,0.10
2023-04-17T21:37:06.104Z,0.23
2023-04-17T21:39:34.970Z,0.10
2023-04-17T21:42:03.536Z,0.40
2023-04-17T21:44:32.001Z,0.10
2023-04-17T21:47:00.618Z,0.10
2023-04-17T21:49:29.241Z,0.13
2023-04-17T21:52:00.061Z,0.20
2023-04-17T21:54:29.753Z,0.10
2023-04-17T21:56:57.986Z,0.10
2023-04-17T21:59:26.244Z,0.13
2023-04-17T22:01:54.717Z,0.50
2023-04-17T22:04:23.704Z,0.10
2023-04-17T22:06:52.247Z,0.87
2023-04-17T22:09:22.605Z,0.20
2023-04-17T22:11:51.439Z,0.10
2023-04-17T22:14:19.724Z,0.10
2023-04-17T22:16:48.064Z,0.23
2023-04-17T22:19:16.321Z,0.10
2023-04-17T22:21:44.723Z,0.20
2023-04-17T22:24:13.216Z,0.50
2023-04-17T22:26:43.161Z,0.10
2023-04-17T22:29:11.549Z,0.83
2023-04-17T22:31:42.278Z,0.10
2023-04-17T22:34:10.537Z,0.00
2023-04-17T22:36:38.802Z,0.00
2023-04-17T22:39:07.175Z,0.10
2023-04-17T22:41:35.840Z,0.30
2023-04-17T22:44:05.641Z,0.17
2023-04-17T22:46:33.946Z,0.30
2023-04-17T22:49:03.808Z,0.20
2023-04-17T22:51:33.282Z,0.10
2023-04-17T22:54:15.272Z,0.10
2023-04-17T22:56:47.925Z,0.03
2023-04-17T22:59:18.033Z,0.00
2023-04-17T23:01:48.085Z,0.30
2023-04-17T23:04:16.598Z,0.00
2023-04-17T23:06:44.985Z,0.60
2023-04-17T23:09:13.230Z,0.40
2023-04-17T23:11:41.550Z,0.27
2023-04-17T23:14:11.517Z,0.10
2023-04-17T23:16:41.293Z,0.20
2023-04-17T23:19:09.525Z,0.73
2023-04-17T23:21:37.912Z,0.20
2023-04-17T23:24:06.420Z,0.37
2023-04-17T23:26:34.689Z,0.40
2023-04-17T23:29:02.952Z,0.10
2023-04-17T23:31:31.245Z,0.20
2023-04-17T23:34:01.228Z,0.20
2023-04-17T23:36:29.610Z,0.80
2023-04-17T23:38:57.954Z,0.37
2023-04-17T23:41:28.041Z,0.30
2023-04-17T23:43:57.384Z,0.53
2023-04-17T23:46:25.722Z,0.00
2023-04-17T23:48:53.966Z,0.27
2023-04-17T23:51:23.810Z,0.67
2023-04-17T23:53:52.184Z,0.10
2023-04-17T23:56:22.262Z,0.20
2023-04-17T23:58:50.639Z,0.20
